sensor_id;sensor_type;location;lat;lon;timestamp;P1;durP1;ratioP1;P2;durP2;ratioP2
72771;SDS011;60894;42.544;1.516;2023-01-08T00:00:09;14.18;;;5.10;;
72771;SDS011;60894;42.544;1.516;2023-01-08T00:02:37;14.70;;;6.32;;
72771;SDS011;60894;42.544;1.516;2023-01-08T00:05:06;14.88;;;5.75;;
72771;SDS011;60894;42.544;1.516;2023-01-08T00:07:35;12.77;;;5.97;;
72771;SDS011;60894;42.544;1.516;2023-01-08T00:10:02;12.20;;;4.88;;
72771;SDS011;60894;42.544;1.516;2023-01-08T00:12:30;12.35;;;4.97;;
72771;SDS011;60894;42.544;1.516;2023-01-08T00:14:58;16.45;;;6.38;;
72771;SDS011;60894;42.544;1.516;2023-01-08T00:17:25;12.90;;;5.18;;
72771;SDS011;60894;42.544;1.516;2023-01-08T00:19:52;14.13;;;5.70;;
72771;SDS011;60894;42.544;1.516;2023-01-08T00:22:21;13.48;;;5.60;;
72771;SDS011;60894;42.544;1.516;2023-01-08T00:24:48;10.95;;;4.32;;
72771;SDS011;60894;42.544;1.516;2023-01-08T00:27:15;7.45;;;2.63;;
72771;SDS011;60894;42.544;1.516;2023-01-08T00:29:42;11.05;;;4.88;;
72771;SDS011;60894;42.544;1.516;2023-01-08T00:32:09;15.50;;;5.17;;
72771;SDS011;60894;42.544;1.516;2023-01-08T00:34:36;12.63;;;4.63;;
72771;SDS011;60894;42.544;1.516;2023-01-08T00:37:03;10.90;;;4.47;;
72771;SDS011;60894;42.544;1.516;2023-01-08T00:39:32;12.20;;;4.45;;
72771;SDS011;60894;42.544;1.516;2023-01-08T00:41:59;12.65;;;5.65;;
72771;SDS011;60894;42.544;1.516;2023-01-08T00:44:26;10.90;;;4.70;;
72771;SDS011;60894;42.544;1.516;2023-01-08T00:46:53;13.68;;;5.57;;
72771;SDS011;60894;42.544;1.516;2023-01-08T00:49:20;12.88;;;5.57;;
72771;SDS011;60894;42.544;1.516;2023-01-08T00:51:47;12.20;;;5.07;;
72771;SDS011;60894;42.544;1.516;2023-01-08T00:54:15;10.93;;;5.38;;
72771;SDS011;60894;42.544;1.516;2023-01-08T00:56:43;11.43;;;4.63;;
72771;SDS011;60894;42.544;1.516;2023-01-08T00:59:10;10.52;;;4.60;;
72771;SDS011;60894;42.544;1.516;2023-01-08T01:01:37;11.95;;;5.03;;
72771;SDS011;60894;42.544;1.516;2023-01-08T01:04:04;13.00;;;4.95;;
72771;SDS011;60894;42.544;1.516;2023-01-08T01:06:32;12.73;;;5.00;;
72771;SDS011;60894;42.544;1.516;2023-01-08T01:08:59;11.90;;;5.30;;
72771;SDS011;60894;42.544;1.516;2023-01-08T01:11:26;16.30;;;7.25;;
72771;SDS011;60894;42.544;1.516;2023-01-08T01:13:55;11.57;;;4.88;;
72771;SDS011;60894;42.544;1.516;2023-01-08T01:16:23;13.27;;;5.40;;
72771;SDS011;60894;42.544;1.516;2023-01-08T01:18:50;17.27;;;6.85;;
72771;SDS011;60894;42.544;1.516;2023-01-08T01:21:20;10.87;;;4.60;;
72771;SDS011;60894;42.544;1.516;2023-01-08T01:23:49;10.82;;;4.32;;
72771;SDS011;60894;42.544;1.516;2023-01-08T01:26:19;14.65;;;6.53;;
72771;SDS011;60894;42.544;1.516;2023-01-08T01:28:47;8.93;;;3.40;;
72771;SDS011;60894;42.544;1.516;2023-01-08T01:31:17;8.40;;;3.30;;
72771;SDS011;60894;42.544;1.516;2023-01-08T01:33:44;11.53;;;4.33;;
72771;SDS011;60894;42.544;1.516;2023-01-08T01:36:12;11.52;;;4.30;;
72771;SDS011;60894;42.544;1.516;2023-01-08T01:38:41;9.00;;;4.00;;
72771;SDS011;60894;42.544;1.516;2023-01-08T01:41:11;7.47;;;2.20;;
72771;SDS011;60894;42.544;1.516;2023-01-08T01:43:45;8.98;;;3.72;;
72771;SDS011;60894;42.544;1.516;2023-01-08T01:46:19;9.70;;;4.50;;
72771;SDS011;60894;42.544;1.516;2023-01-08T01:48:52;9.85;;;4.20;;
72771;SDS011;60894;42.544;1.516;2023-01-08T01:51:24;8.85;;;4.00;;
72771;SDS011;60894;42.544;1.516;2023-01-08T01:53:56;9.93;;;4.18;;
72771;SDS011;60894;42.544;1.516;2023-01-08T01:56:25;9.77;;;4.13;;
72771;SDS011;60894;42.544;1.516;2023-01-08T01:58:53;8.80;;;3.53;;
72771;SDS011;60894;42.544;1.516;2023-01-08T02:01:22;8.93;;;3.42;;
72771;SDS011;60894;42.544;1.516;2023-01-08T02:03:50;7.57;;;3.05;;
72771;SDS011;60894;42.544;1.516;2023-01-08T02:06:19;9.32;;;3.42;;
72771;SDS011;60894;42.544;1.516;2023-01-08T02:08:55;8.88;;;3.70;;
72771;SDS011;60894;42.544;1.516;2023-01-08T02:11:28;8.33;;;3.53;;
72771;SDS011;60894;42.544;1.516;2023-01-08T02:14:03;8.63;;;3.10;;
72771;SDS011;60894;42.544;1.516;2023-01-08T02:16:36;9.10;;;3.22;;
72771;SDS011;60894;42.544;1.516;2023-01-08T02:19:12;8.80;;;3.40;;
72771;SDS011;60894;42.544;1.516;2023-01-08T02:21:48;6.57;;;2.22;;
72771;SDS011;60894;42.544;1.516;2023-01-08T02:24:31;8.23;;;2.37;;
72771;SDS011;60894;42.544;1.516;2023-01-08T02:27:08;7.45;;;2.88;;
72771;SDS011;60894;42.544;1.516;2023-01-08T02:29:37;10.07;;;3.90;;
72771;SDS011;60894;42.544;1.516;2023-01-08T02:32:06;7.65;;;2.30;;
72771;SDS011;60894;42.544;1.516;2023-01-08T02:34:33;5.72;;;2.17;;
72771;SDS011;60894;42.544;1.516;2023-01-08T02:37:01;7.57;;;2.60;;
72771;SDS011;60894;42.544;1.516;2023-01-08T02:39:41;5.20;;;1.92;;
72771;SDS011;60894;42.544;1.516;2023-01-08T02:42:39;5.45;;;2.20;;
72771;SDS011;60894;42.544;1.516;2023-01-08T02:45:14;5.43;;;1.67;;
72771;SDS011;60894;42.544;1.516;2023-01-08T02:47:54;10.25;;;5.50;;
72771;SDS011;60894;42.544;1.516;2023-01-08T02:50:28;7.90;;;3.57;;
72771;SDS011;60894;42.544;1.516;2023-01-08T02:53:00;6.60;;;2.20;;
72771;SDS011;60894;42.544;1.516;2023-01-08T02:55:35;5.68;;;2.00;;
72771;SDS011;60894;42.544;1.516;2023-01-08T02:58:05;5.68;;;2.28;;
72771;SDS011;60894;42.544;1.516;2023-01-08T03:00:33;8.13;;;3.00;;
72771;SDS011;60894;42.544;1.516;2023-01-08T03:03:03;6.33;;;2.27;;
72771;SDS011;60894;42.544;1.516;2023-01-08T03:05:33;5.03;;;1.70;;
72771;SDS011;60894;42.544;1.516;2023-01-08T03:08:01;3.75;;;1.40;;
72771;SDS011;60894;42.544;1.516;2023-01-08T03:10:29;5.22;;;2.10;;
72771;SDS011;60894;42.544;1.516;2023-01-08T03:12:57;6.22;;;2.00;;
72771;SDS011;60894;42.544;1.516;2023-01-08T03:15:30;5.83;;;2.37;;
72771;SDS011;60894;42.544;1.516;2023-01-08T03:18:03;5.85;;;2.10;;
72771;SDS011;60894;42.544;1.516;2023-01-08T03:20:35;5.22;;;2.17;;
72771;SDS011;60894;42.544;1.516;2023-01-08T03:23:04;6.20;;;2.40;;
72771;SDS011;60894;42.544;1.516;2023-01-08T03:25:35;6.22;;;2.40;;
72771;SDS011;60894;42.544;1.516;2023-01-08T03:28:06;6.40;;;1.80;;
72771;SDS011;60894;42.544;1.516;2023-01-08T03:30:39;4.78;;;1.70;;
72771;SDS011;60894;42.544;1.516;2023-01-08T03:33:08;6.63;;;1.90;;
72771;SDS011;60894;42.544;1.516;2023-01-08T03:35:36;6.00;;;2.22;;
72771;SDS011;60894;42.544;1.516;2023-01-08T03:38:07;5.72;;;2.40;;
72771;SDS011;60894;42.544;1.516;2023-01-08T03:40:40;9.40;;;4.97;;
72771;SDS011;60894;42.544;1.516;2023-01-08T03:43:10;7.30;;;3.10;;
72771;SDS011;60894;42.544;1.516;2023-01-08T03:45:40;6.60;;;2.75;;
72771;SDS011;60894;42.544;1.516;2023-01-08T03:48:16;5.43;;;2.30;;
72771;SDS011;60894;42.544;1.516;2023-01-08T03:50:44;5.22;;;1.98;;
72771;SDS011;60894;42.544;1.516;2023-01-08T03:53:12;5.63;;;1.90;;
72771;SDS011;60894;42.544;1.516;2023-01-08T03:55:39;4.22;;;1.63;;
72771;SDS011;60894;42.544;1.516;2023-01-08T03:58:06;7.32;;;2.17;;
72771;SDS011;60894;42.544;1.516;2023-01-08T04:00:33;6.57;;;2.28;;
72771;SDS011;60894;42.544;1.516;2023-01-08T04:03:02;5.20;;;1.98;;
72771;SDS011;60894;42.544;1.516;2023-01-08T04:05:29;5.67;;;2.10;;
72771;SDS011;60894;42.544;1.516;2023-01-08T04:07:56;3.67;;;1.60;;
72771;SDS011;60894;42.544;1.516;2023-01-08T04:10:24;5.93;;;2.78;;
72771;SDS011;60894;42.544;1.516;2023-01-08T04:12:51;5.18;;;2.10;;
72771;SDS011;60894;42.544;1.516;2023-01-08T04:15:19;5.20;;;1.90;;
72771;SDS011;60894;42.544;1.516;2023-01-08T04:17:46;6.57;;;2.30;;
72771;SDS011;60894;42.544;1.516;2023-01-08T04:20:14;9.52;;;3.40;;
72771;SDS011;60894;42.544;1.516;2023-01-08T04:22:42;12.30;;;5.30;;
72771;SDS011;60894;42.544;1.516;2023-01-08T04:25:09;8.25;;;2.75;;
72771;SDS011;60894;42.544;1.516;2023-01-08T04:27:36;5.72;;;2.10;;
72771;SDS011;60894;42.544;1.516;2023-01-08T04:30:03;4.83;;;2.13;;
72771;SDS011;60894;42.544;1.516;2023-01-08T04:32:31;6.72;;;2.00;;
72771;SDS011;60894;42.544;1.516;2023-01-08T04:34:58;4.78;;;2.00;;
72771;SDS011;60894;42.544;1.516;2023-01-08T04:37:27;8.65;;;2.72;;
72771;SDS011;60894;42.544;1.516;2023-01-08T04:39:54;5.55;;;2.22;;
72771;SDS011;60894;42.544;1.516;2023-01-08T04:42:21;6.60;;;2.50;;
72771;SDS011;60894;42.544;1.516;2023-01-08T04:44:48;4.32;;;1.70;;
72771;SDS011;60894;42.544;1.516;2023-01-08T04:47:15;4.03;;;1.50;;
72771;SDS011;60894;42.544;1.516;2023-01-08T04:49:42;5.30;;;1.92;;
72771;SDS011;60894;42.544;1.516;2023-01-08T04:52:09;6.38;;;2.65;;
72771;SDS011;60894;42.544;1.516;2023-01-08T04:54:38;6.70;;;3.03;;
72771;SDS011;60894;42.544;1.516;2023-01-08T04:57:05;5.38;;;1.85;;
72771;SDS011;60894;42.544;1.516;2023-01-08T04:59:32;4.65;;;2.08;;
72771;SDS011;60894;42.544;1.516;2023-01-08T05:01:59;6.72;;;2.00;;
72771;SDS011;60894;42.544;1.516;2023-01-08T05:04:26;4.88;;;1.90;;
72771;SDS011;60894;42.544;1.516;2023-01-08T05:06:53;6.43;;;2.40;;
72771;SDS011;60894;42.544;1.516;2023-01-08T05:09:20;9.75;;;3.95;;
72771;SDS011;60894;42.544;1.516;2023-01-08T05:11:49;7.50;;;2.70;;
72771;SDS011;60894;42.544;1.516;2023-01-08T05:14:16;20.15;;;8.55;;
72771;SDS011;60894;42.544;1.516;2023-01-08T05:16:43;8.60;;;3.28;;
72771;SDS011;60894;42.544;1.516;2023-01-08T05:19:10;7.03;;;2.20;;
72771;SDS011;60894;42.544;1.516;2023-01-08T05:21:37;6.25;;;2.13;;
72771;SDS011;60894;42.544;1.516;2023-01-08T05:24:04;6.53;;;2.40;;
72771;SDS011;60894;42.544;1.516;2023-01-08T05:26:33;21.45;;;8.65;;
72771;SDS011;60894;42.544;1.516;2023-01-08T05:29:01;15.52;;;6.65;;
72771;SDS011;60894;42.544;1.516;2023-01-08T05:31:29;8.93;;;3.67;;
72771;SDS011;60894;42.544;1.516;2023-01-08T05:33:56;7.93;;;2.38;;
72771;SDS011;60894;42.544;1.516;2023-01-08T05:36:24;6.65;;;2.85;;
72771;SDS011;60894;42.544;1.516;2023-01-08T05:38:51;7.95;;;2.65;;
72771;SDS011;60894;42.544;1.516;2023-01-08T05:41:18;6.40;;;2.40;;
72771;SDS011;60894;42.544;1.516;2023-01-08T05:43:45;8.90;;;3.07;;
72771;SDS011;60894;42.544;1.516;2023-01-08T05:46:13;8.43;;;2.63;;
72771;SDS011;60894;42.544;1.516;2023-01-08T05:48:41;8.13;;;2.60;;
72771;SDS011;60894;42.544;1.516;2023-01-08T05:51:08;5.50;;;2.53;;
72771;SDS011;60894;42.544;1.516;2023-01-08T05:53:35;5.72;;;2.60;;
72771;SDS011;60894;42.544;1.516;2023-01-08T05:56:03;6.97;;;3.30;;
72771;SDS011;60894;42.544;1.516;2023-01-08T05:58:31;7.32;;;3.00;;
72771;SDS011;60894;42.544;1.516;2023-01-08T06:01:02;8.20;;;2.90;;
72771;SDS011;60894;42.544;1.516;2023-01-08T06:03:33;8.30;;;2.60;;
72771;SDS011;60894;42.544;1.516;2023-01-08T06:06:00;6.45;;;2.80;;
72771;SDS011;60894;42.544;1.516;2023-01-08T06:08:29;7.60;;;2.80;;
72771;SDS011;60894;42.544;1.516;2023-01-08T06:10:57;7.72;;;2.58;;
72771;SDS011;60894;42.544;1.516;2023-01-08T06:13:25;6.25;;;2.75;;
72771;SDS011;60894;42.544;1.516;2023-01-08T06:15:52;8.65;;;3.25;;
72771;SDS011;60894;42.544;1.516;2023-01-08T06:18:20;8.63;;;3.78;;
72771;SDS011;60894;42.544;1.516;2023-01-08T06:20:48;8.83;;;3.80;;
72771;SDS011;60894;42.544;1.516;2023-01-08T06:23:15;8.98;;;3.40;;
72771;SDS011;60894;42.544;1.516;2023-01-08T06:25:42;8.15;;;3.15;;
72771;SDS011;60894;42.544;1.516;2023-01-08T06:28:10;9.85;;;3.55;;
72771;SDS011;60894;42.544;1.516;2023-01-08T06:30:37;8.35;;;2.95;;
72771;SDS011;60894;42.544;1.516;2023-01-08T06:33:04;7.30;;;3.03;;
72771;SDS011;60894;42.544;1.516;2023-01-08T06:35:31;7.25;;;2.97;;
72771;SDS011;60894;42.544;1.516;2023-01-08T06:37:59;7.57;;;3.50;;
72771;SDS011;60894;42.544;1.516;2023-01-08T06:40:26;6.70;;;3.00;;
72771;SDS011;60894;42.544;1.516;2023-01-08T06:42:53;7.88;;;3.03;;
72771;SDS011;60894;42.544;1.516;2023-01-08T06:45:21;7.70;;;2.83;;
72771;SDS011;60894;42.544;1.516;2023-01-08T06:47:48;6.53;;;2.45;;
72771;SDS011;60894;42.544;1.516;2023-01-08T06:50:15;7.43;;;2.40;;
72771;SDS011;60894;42.544;1.516;2023-01-08T06:52:42;7.90;;;2.90;;
72771;SDS011;60894;42.544;1.516;2023-01-08T06:55:12;7.43;;;2.90;;
72771;SDS011;60894;42.544;1.516;2023-01-08T06:57:39;8.10;;;3.37;;
72771;SDS011;60894;42.544;1.516;2023-01-08T07:00:06;7.22;;;2.72;;
72771;SDS011;60894;42.544;1.516;2023-01-08T07:02:34;7.28;;;3.15;;
72771;SDS011;60894;42.544;1.516;2023-01-08T07:05:01;8.75;;;3.60;;
72771;SDS011;60894;42.544;1.516;2023-01-08T07:07:29;8.02;;;3.53;;
72771;SDS011;60894;42.544;1.516;2023-01-08T07:09:56;8.13;;;3.40;;
72771;SDS011;60894;42.544;1.516;2023-01-08T07:12:24;7.72;;;3.40;;
72771;SDS011;60894;42.544;1.516;2023-01-08T07:14:52;7.00;;;3.30;;
72771;SDS011;60894;42.544;1.516;2023-01-08T07:17:19;5.93;;;2.30;;
72771;SDS011;60894;42.544;1.516;2023-01-08T07:19:46;7.75;;;3.10;;
72771;SDS011;60894;42.544;1.516;2023-01-08T07:22:13;8.03;;;3.37;;
72771;SDS011;60894;42.544;1.516;2023-01-08T07:24:40;8.32;;;2.75;;
72771;SDS011;60894;42.544;1.516;2023-01-08T07:27:07;9.05;;;3.50;;
72771;SDS011;60894;42.544;1.516;2023-01-08T07:29:36;12.93;;;5.72;;
72771;SDS011;60894;42.544;1.516;2023-01-08T07:32:03;11.98;;;5.10;;
72771;SDS011;60894;42.544;1.516;2023-01-08T07:34:30;8.50;;;3.50;;
72771;SDS011;60894;42.544;1.516;2023-01-08T07:36:58;9.43;;;3.60;;
72771;SDS011;60894;42.544;1.516;2023-01-08T07:39:26;8.43;;;3.33;;
72771;SDS011;60894;42.544;1.516;2023-01-08T07:41:53;14.45;;;5.82;;
72771;SDS011;60894;42.544;1.516;2023-01-08T07:44:20;9.18;;;4.25;;
72771;SDS011;60894;42.544;1.516;2023-01-08T07:46:48;14.57;;;6.03;;
72771;SDS011;60894;42.544;1.516;2023-01-08T07:49:15;8.98;;;3.70;;
72771;SDS011;60894;42.544;1.516;2023-01-08T07:51:43;9.95;;;3.85;;
72771;SDS011;60894;42.544;1.516;2023-01-08T07:54:10;7.85;;;3.60;;
72771;SDS011;60894;42.544;1.516;2023-01-08T07:56:37;8.02;;;3.65;;
72771;SDS011;60894;42.544;1.516;2023-01-08T07:59:04;8.67;;;3.23;;
72771;SDS011;60894;42.544;1.516;2023-01-08T08:01:31;17.30;;;7.50;;
72771;SDS011;60894;42.544;1.516;2023-01-08T08:03:59;13.40;;;5.85;;
72771;SDS011;60894;42.544;1.516;2023-01-08T08:06:27;8.90;;;3.50;;
72771;SDS011;60894;42.544;1.516;2023-01-08T08:08:55;8.93;;;3.80;;
72771;SDS011;60894;42.544;1.516;2023-01-08T08:11:24;9.07;;;3.70;;
72771;SDS011;60894;42.544;1.516;2023-01-08T08:13:51;8.30;;;3.60;;
72771;SDS011;60894;42.544;1.516;2023-01-08T08:16:18;8.90;;;4.18;;
72771;SDS011;60894;42.544;1.516;2023-01-08T08:18:45;9.82;;;4.10;;
72771;SDS011;60894;42.544;1.516;2023-01-08T08:21:13;8.50;;;3.42;;
72771;SDS011;60894;42.544;1.516;2023-01-08T08:23:40;10.47;;;4.23;;
72771;SDS011;60894;42.544;1.516;2023-01-08T08:26:07;10.13;;;4.53;;
72771;SDS011;60894;42.544;1.516;2023-01-08T08:28:35;8.93;;;3.78;;
72771;SDS011;60894;42.544;1.516;2023-01-08T08:31:02;10.80;;;3.97;;
72771;SDS011;60894;42.544;1.516;2023-01-08T08:33:29;8.68;;;3.60;;
72771;SDS011;60894;42.544;1.516;2023-01-08T08:35:56;11.27;;;3.90;;
72771;SDS011;60894;42.544;1.516;2023-01-08T08:38:24;7.72;;;3.65;;
72771;SDS011;60894;42.544;1.516;2023-01-08T08:40:51;8.40;;;3.35;;
72771;SDS011;60894;42.544;1.516;2023-01-08T08:43:19;8.00;;;3.50;;
72771;SDS011;60894;42.544;1.516;2023-01-08T08:45:46;11.45;;;3.95;;
72771;SDS011;60894;42.544;1.516;2023-01-08T08:48:13;8.80;;;3.70;;
72771;SDS011;60894;42.544;1.516;2023-01-08T08:50:41;9.18;;;3.45;;
72771;SDS011;60894;42.544;1.516;2023-01-08T08:53:08;8.25;;;3.55;;
72771;SDS011;60894;42.544;1.516;2023-01-08T08:55:37;9.50;;;4.32;;
72771;SDS011;60894;42.544;1.516;2023-01-08T08:58:04;11.70;;;4.40;;
72771;SDS011;60894;42.544;1.516;2023-01-08T09:00:35;9.37;;;3.77;;
72771;SDS011;60894;42.544;1.516;2023-01-08T09:03:02;11.38;;;4.93;;
72771;SDS011;60894;42.544;1.516;2023-01-08T09:05:30;14.15;;;6.43;;
72771;SDS011;60894;42.544;1.516;2023-01-08T09:07:57;9.30;;;3.90;;
72771;SDS011;60894;42.544;1.516;2023-01-08T09:10:24;10.80;;;4.53;;
72771;SDS011;60894;42.544;1.516;2023-01-08T09:12:53;9.87;;;4.27;;
72771;SDS011;60894;42.544;1.516;2023-01-08T09:15:20;9.88;;;3.83;;
72771;SDS011;60894;42.544;1.516;2023-01-08T09:17:51;8.55;;;3.95;;
72771;SDS011;60894;42.544;1.516;2023-01-08T09:20:19;9.20;;;4.07;;
72771;SDS011;60894;42.544;1.516;2023-01-08T09:22:47;9.30;;;3.97;;
72771;SDS011;60894;42.544;1.516;2023-01-08T09:25:14;9.70;;;4.30;;
72771;SDS011;60894;42.544;1.516;2023-01-08T09:27:41;10.13;;;4.88;;
72771;SDS011;60894;42.544;1.516;2023-01-08T09:30:10;11.25;;;5.15;;
72771;SDS011;60894;42.544;1.516;2023-01-08T09:32:38;11.10;;;5.25;;
72771;SDS011;60894;42.544;1.516;2023-01-08T09:35:05;9.80;;;4.50;;
72771;SDS011;60894;42.544;1.516;2023-01-08T09:37:33;10.60;;;4.63;;
72771;SDS011;60894;42.544;1.516;2023-01-08T09:40:00;12.73;;;5.20;;
72771;SDS011;60894;42.544;1.516;2023-01-08T09:42:27;11.57;;;4.65;;
72771;SDS011;60894;42.544;1.516;2023-01-08T09:44:55;9.40;;;4.10;;
72771;SDS011;60894;42.544;1.516;2023-01-08T09:47:25;10.02;;;4.40;;
72771;SDS011;60894;42.544;1.516;2023-01-08T09:49:57;9.40;;;4.27;;
72771;SDS011;60894;42.544;1.516;2023-01-08T09:52:26;10.35;;;4.47;;
72771;SDS011;60894;42.544;1.516;2023-01-08T09:54:55;9.02;;;3.75;;
72771;SDS011;60894;42.544;1.516;2023-01-08T09:57:22;8.13;;;3.40;;
72771;SDS011;60894;42.544;1.516;2023-01-08T09:59:49;5.13;;;1.88;;
72771;SDS011;60894;42.544;1.516;2023-01-08T10:02:17;1.33;;;0.70;;
72771;SDS011;60894;42.544;1.516;2023-01-08T10:04:47;1.40;;;0.60;;
72771;SDS011;60894;42.544;1.516;2023-01-08T10:07:19;1.75;;;0.80;;
72771;SDS011;60894;42.544;1.516;2023-01-08T10:09:48;1.35;;;0.65;;
72771;SDS011;60894;42.544;1.516;2023-01-08T10:12:17;2.47;;;1.00;;
72771;SDS011;60894;42.544;1.516;2023-01-08T10:14:49;3.40;;;1.00;;
72771;SDS011;60894;42.544;1.516;2023-01-08T10:17:20;24.98;;;11.77;;
72771;SDS011;60894;42.544;1.516;2023-01-08T10:19:53;3.10;;;1.45;;
72771;SDS011;60894;42.544;1.516;2023-01-08T10:22:21;1.92;;;0.75;;
72771;SDS011;60894;42.544;1.516;2023-01-08T10:24:51;1.80;;;0.70;;
72771;SDS011;60894;42.544;1.516;2023-01-08T10:27:19;2.50;;;0.70;;
72771;SDS011;60894;42.544;1.516;2023-01-08T10:29:48;3.35;;;0.90;;
72771;SDS011;60894;42.544;1.516;2023-01-08T10:32:16;2.72;;;1.80;;
72771;SDS011;60894;42.544;1.516;2023-01-08T10:34:45;0.95;;;0.60;;
72771;SDS011;60894;42.544;1.516;2023-01-08T10:37:26;3.72;;;1.20;;
72771;SDS011;60894;42.544;1.516;2023-01-08T10:39:57;6.63;;;1.90;;
72771;SDS011;60894;42.544;1.516;2023-01-08T10:42:31;5.47;;;3.15;;
72771;SDS011;60894;42.544;1.516;2023-01-08T10:45:01;2.85;;;1.33;;
72771;SDS011;60894;42.544;1.516;2023-01-08T10:47:31;3.15;;;0.90;;
72771;SDS011;60894;42.544;1.516;2023-01-08T10:50:02;1.60;;;0.75;;
72771;SDS011;60894;42.544;1.516;2023-01-08T10:52:32;0.87;;;0.50;;
72771;SDS011;60894;42.544;1.516;2023-01-08T10:55:10;1.35;;;0.60;;
72771;SDS011;60894;42.544;1.516;2023-01-08T10:57:39;1.40;;;0.50;;
72771;SDS011;60894;42.544;1.516;2023-01-08T11:00:21;0.90;;;0.57;;
72771;SDS011;60894;42.544;1.516;2023-01-08T11:02:49;0.60;;;0.40;;
72771;SDS011;60894;42.544;1.516;2023-01-08T11:05:17;2.03;;;0.57;;
72771;SDS011;60894;42.544;1.516;2023-01-08T11:07:48;1.27;;;0.50;;
72771;SDS011;60894;42.544;1.516;2023-01-08T11:10:20;1.20;;;0.50;;
72771;SDS011;60894;42.544;1.516;2023-01-08T11:12:52;1.83;;;0.90;;
72771;SDS011;60894;42.544;1.516;2023-01-08T11:18:10;1.03;;;0.53;;
72771;SDS011;60894;42.544;1.516;2023-01-08T11:20:44;3.05;;;1.00;;
72771;SDS011;60894;42.544;1.516;2023-01-08T11:23:16;0.75;;;0.30;;
72771;SDS011;60894;42.544;1.516;2023-01-08T11:25:47;0.63;;;0.40;;
72771;SDS011;60894;42.544;1.516;2023-01-08T11:28:20;1.95;;;0.60;;
72771;SDS011;60894;42.544;1.516;2023-01-08T11:30:53;1.20;;;0.50;;
72771;SDS011;60894;42.544;1.516;2023-01-08T11:33:29;1.33;;;0.70;;
72771;SDS011;60894;42.544;1.516;2023-01-08T11:36:01;3.13;;;0.82;;
72771;SDS011;60894;42.544;1.516;2023-01-08T11:38:35;0.95;;;0.30;;
72771;SDS011;60894;42.544;1.516;2023-01-08T11:41:05;3.90;;;0.80;;
72771;SDS011;60894;42.544;1.516;2023-01-08T11:43:56;1.87;;;0.60;;
72771;SDS011;60894;42.544;1.516;2023-01-08T11:46:36;2.15;;;0.90;;
72771;SDS011;60894;42.544;1.516;2023-01-08T11:49:12;1.38;;;0.60;;
72771;SDS011;60894;42.544;1.516;2023-01-08T11:51:56;1.38;;;0.50;;
72771;SDS011;60894;42.544;1.516;2023-01-08T11:54:39;1.90;;;0.55;;
72771;SDS011;60894;42.544;1.516;2023-01-08T11:57:20;4.20;;;0.60;;
72771;SDS011;60894;42.544;1.516;2023-01-08T12:00:03;0.95;;;0.30;;
72771;SDS011;60894;42.544;1.516;2023-01-08T12:02:48;4.55;;;1.73;;
72771;SDS011;60894;42.544;1.516;2023-01-08T12:05:21;1.73;;;0.73;;
72771;SDS011;60894;42.544;1.516;2023-01-08T12:07:54;5.75;;;3.47;;
72771;SDS011;60894;42.544;1.516;2023-01-08T12:10:32;2.80;;;1.63;;
72771;SDS011;60894;42.544;1.516;2023-01-08T12:13:09;2.33;;;0.70;;
72771;SDS011;60894;42.544;1.516;2023-01-08T12:15:48;2.25;;;0.60;;
72771;SDS011;60894;42.544;1.516;2023-01-08T12:18:27;2.80;;;0.95;;
72771;SDS011;60894;42.544;1.516;2023-01-08T12:21:11;3.50;;;0.82;;
72771;SDS011;60894;42.544;1.516;2023-01-08T12:23:45;1.90;;;0.80;;
72771;SDS011;60894;42.544;1.516;2023-01-08T12:26:24;0.98;;;0.40;;
72771;SDS011;60894;42.544;1.516;2023-01-08T12:29:00;2.55;;;0.65;;
72771;SDS011;60894;42.544;1.516;2023-01-08T12:31:43;0.73;;;0.52;;
72771;SDS011;60894;42.544;1.516;2023-01-08T12:34:29;1.95;;;0.45;;
72771;SDS011;60894;42.544;1.516;2023-01-08T12:37:04;2.10;;;0.47;;
72771;SDS011;60894;42.544;1.516;2023-01-08T12:39:40;2.05;;;0.35;;
72771;SDS011;60894;42.544;1.516;2023-01-08T12:42:15;0.82;;;0.40;;
72771;SDS011;60894;42.544;1.516;2023-01-08T12:44:48;3.63;;;0.95;;
72771;SDS011;60894;42.544;1.516;2023-01-08T12:47:19;1.52;;;0.50;;
72771;SDS011;60894;42.544;1.516;2023-01-08T12:49:51;1.40;;;0.30;;
72771;SDS011;60894;42.544;1.516;2023-01-08T12:52:27;0.77;;;0.38;;
72771;SDS011;60894;42.544;1.516;2023-01-08T12:55:03;2.60;;;0.68;;
72771;SDS011;60894;42.544;1.516;2023-01-08T12:57:39;1.42;;;0.63;;
72771;SDS011;60894;42.544;1.516;2023-01-08T13:00:16;1.13;;;0.28;;
72771;SDS011;60894;42.544;1.516;2023-01-08T13:02:48;0.67;;;0.30;;
72771;SDS011;60894;42.544;1.516;2023-01-08T13:05:30;0.85;;;0.30;;
72771;SDS011;60894;42.544;1.516;2023-01-08T13:07:59;1.02;;;0.40;;
72771;SDS011;60894;42.544;1.516;2023-01-08T13:10:34;1.05;;;0.40;;
72771;SDS011;60894;42.544;1.516;2023-01-08T13:13:06;0.90;;;0.40;;
72771;SDS011;60894;42.544;1.516;2023-01-08T13:15:48;1.43;;;0.40;;
72771;SDS011;60894;42.544;1.516;2023-01-08T13:18:16;3.45;;;1.00;;
72771;SDS011;60894;42.544;1.516;2023-01-08T13:20:53;1.35;;;0.63;;
72771;SDS011;60894;42.544;1.516;2023-01-08T13:23:22;2.17;;;0.85;;
72771;SDS011;60894;42.544;1.516;2023-01-08T13:25:52;1.17;;;0.47;;
72771;SDS011;60894;42.544;1.516;2023-01-08T13:28:27;2.03;;;0.70;;
72771;SDS011;60894;42.544;1.516;2023-01-08T13:31:08;1.77;;;0.52;;
72771;SDS011;60894;42.544;1.516;2023-01-08T13:33:51;2.20;;;0.80;;
72771;SDS011;60894;42.544;1.516;2023-01-08T13:36:20;3.35;;;1.10;;
72771;SDS011;60894;42.544;1.516;2023-01-08T13:38:58;1.58;;;0.50;;
72771;SDS011;60894;42.544;1.516;2023-01-08T13:41:28;1.70;;;0.70;;
72771;SDS011;60894;42.544;1.516;2023-01-08T13:44:02;1.08;;;0.52;;
72771;SDS011;60894;42.544;1.516;2023-01-08T13:46:30;2.78;;;0.93;;
72771;SDS011;60894;42.544;1.516;2023-01-08T13:49:02;3.00;;;0.88;;
72771;SDS011;60894;42.544;1.516;2023-01-08T13:51:40;7.55;;;2.55;;
72771;SDS011;60894;42.544;1.516;2023-01-08T13:54:16;3.47;;;1.00;;
72771;SDS011;60894;42.544;1.516;2023-01-08T13:56:47;3.55;;;1.00;;
72771;SDS011;60894;42.544;1.516;2023-01-08T13:59:24;3.72;;;1.27;;
72771;SDS011;60894;42.544;1.516;2023-01-08T14:02:18;2.08;;;0.90;;
72771;SDS011;60894;42.544;1.516;2023-01-08T14:04:48;4.88;;;1.55;;
72771;SDS011;60894;42.544;1.516;2023-01-08T14:07:16;2.67;;;1.03;;
72771;SDS011;60894;42.544;1.516;2023-01-08T14:09:43;2.97;;;1.10;;
72771;SDS011;60894;42.544;1.516;2023-01-08T14:12:11;1.10;;;0.50;;
72771;SDS011;60894;42.544;1.516;2023-01-08T14:14:44;2.65;;;0.80;;
72771;SDS011;60894;42.544;1.516;2023-01-08T14:17:14;1.08;;;0.50;;
72771;SDS011;60894;42.544;1.516;2023-01-08T14:19:42;2.20;;;0.67;;
72771;SDS011;60894;42.544;1.516;2023-01-08T14:22:13;1.75;;;0.80;;
72771;SDS011;60894;42.544;1.516;2023-01-08T14:24:43;2.85;;;1.00;;
72771;SDS011;60894;42.544;1.516;2023-01-08T14:27:21;2.58;;;0.90;;
72771;SDS011;60894;42.544;1.516;2023-01-08T14:29:51;4.10;;;1.20;;
72771;SDS011;60894;42.544;1.516;2023-01-08T14:32:19;2.83;;;1.00;;
72771;SDS011;60894;42.544;1.516;2023-01-08T14:34:49;3.13;;;1.10;;
72771;SDS011;60894;42.544;1.516;2023-01-08T14:37:17;1.38;;;0.52;;
72771;SDS011;60894;42.544;1.516;2023-01-08T14:39:45;5.45;;;1.98;;
72771;SDS011;60894;42.544;1.516;2023-01-08T14:42:16;2.63;;;1.02;;
72771;SDS011;60894;42.544;1.516;2023-01-08T14:45:05;2.13;;;1.00;;
72771;SDS011;60894;42.544;1.516;2023-01-08T14:47:39;4.35;;;1.58;;
72771;SDS011;60894;42.544;1.516;2023-01-08T14:50:15;7.00;;;2.40;;
72771;SDS011;60894;42.544;1.516;2023-01-08T14:52:44;5.18;;;1.80;;
72771;SDS011;60894;42.544;1.516;2023-01-08T14:55:12;8.80;;;2.78;;
72771;SDS011;60894;42.544;1.516;2023-01-08T14:57:43;5.73;;;2.00;;
72771;SDS011;60894;42.544;1.516;2023-01-08T15:00:18;3.33;;;1.25;;
72771;SDS011;60894;42.544;1.516;2023-01-08T15:02:48;3.85;;;1.52;;
72771;SDS011;60894;42.544;1.516;2023-01-08T15:05:16;6.03;;;2.28;;